sensor_id;sensor_type;location;lat;lon;timestamp;P1;durP1;ratioP1;P2;durP2;ratioP2
29500;SDS011;16450;50.288;10.966;2023-02-28T00:02:57;6.37;;;4.70;;
29500;SDS011;16450;50.288;10.966;2023-02-28T00:05:59;8.60;;;4.80;;
29500;SDS011;16450;50.288;10.966;2023-02-28T00:09:01;6.97;;;4.47;;
29500;SDS011;16450;50.288;10.966;2023-02-28T00:12:03;7.20;;;4.73;;
29500;SDS011;16450;50.288;10.966;2023-02-28T00:15:11;7.27;;;4.37;;
29500;SDS011;16450;50.288;10.966;2023-02-28T00:18:13;7.53;;;4.40;;
29500;SDS011;16450;50.288;10.966;2023-02-28T00:21:15;7.23;;;4.40;;
29500;SDS011;16450;50.288;10.966;2023-02-28T00:24:18;6.90;;;4.57;;
29500;SDS011;16450;50.288;10.966;2023-02-28T00:27:20;8.23;;;4.90;;
29500;SDS011;16450;50.288;10.966;2023-02-28T00:30:23;8.27;;;4.70;;
29500;SDS011;16450;50.288;10.966;2023-02-28T00:33:25;6.90;;;4.47;;
29500;SDS011;16450;50.288;10.966;2023-02-28T00:36:28;9.50;;;4.50;;
29500;SDS011;16450;50.288;10.966;2023-02-28T00:39:30;7.33;;;4.40;;
29500;SDS011;16450;50.288;10.966;2023-02-28T00:42:32;7.23;;;4.33;;
29500;SDS011;16450;50.288;10.966;2023-02-28T00:45:35;5.80;;;4.10;;
29500;SDS011;16450;50.288;10.966;2023-02-28T00:48:37;6.33;;;4.10;;
29500;SDS011;16450;50.288;10.966;2023-02-28T00:51:39;6.17;;;3.90;;
29500;SDS011;16450;50.288;10.966;2023-02-28T00:54:41;4.53;;;3.70;;
29500;SDS011;16450;50.288;10.966;2023-02-28T00:57:42;8.50;;;4.77;;
29500;SDS011;16450;50.288;10.966;2023-02-28T01:00:44;7.47;;;4.13;;
29500;SDS011;16450;50.288;10.966;2023-02-28T01:03:50;8.63;;;4.00;;
29500;SDS011;16450;50.288;10.966;2023-02-28T01:06:52;6.73;;;4.27;;
29500;SDS011;16450;50.288;10.966;2023-02-28T01:09:54;5.73;;;4.17;;
29500;SDS011;16450;50.288;10.966;2023-02-28T01:12:56;7.23;;;4.30;;
29500;SDS011;16450;50.288;10.966;2023-02-28T01:15:58;9.53;;;4.17;;
29500;SDS011;16450;50.288;10.966;2023-02-28T01:19:00;6.83;;;4.13;;
29500;SDS011;16450;50.288;10.966;2023-02-28T01:22:03;5.93;;;4.20;;
29500;SDS011;16450;50.288;10.966;2023-02-28T01:25:06;8.13;;;4.60;;
29500;SDS011;16450;50.288;10.966;2023-02-28T01:28:08;8.10;;;4.83;;
29500;SDS011;16450;50.288;10.966;2023-02-28T01:31:11;6.03;;;4.10;;
29500;SDS011;16450;50.288;10.966;2023-02-28T01:34:13;8.90;;;4.50;;
29500;SDS011;16450;50.288;10.966;2023-02-28T01:37:15;5.60;;;4.40;;
29500;SDS011;16450;50.288;10.966;2023-02-28T01:40:17;5.47;;;3.90;;
29500;SDS011;16450;50.288;10.966;2023-02-28T01:43:23;7.43;;;4.50;;
29500;SDS011;16450;50.288;10.966;2023-02-28T01:46:26;7.03;;;4.30;;
29500;SDS011;16450;50.288;10.966;2023-02-28T01:49:27;8.77;;;4.70;;
29500;SDS011;16450;50.288;10.966;2023-02-28T01:52:30;7.37;;;4.53;;
29500;SDS011;16450;50.288;10.966;2023-02-28T01:55:32;8.17;;;4.43;;
29500;SDS011;16450;50.288;10.966;2023-02-28T01:58:36;7.40;;;4.40;;
29500;SDS011;16450;50.288;10.966;2023-02-28T02:01:38;7.63;;;4.17;;
29500;SDS011;16450;50.288;10.966;2023-02-28T02:04:42;9.07;;;4.30;;
29500;SDS011;16450;50.288;10.966;2023-02-28T02:08:05;5.37;;;3.60;;
29500;SDS011;16450;50.288;10.966;2023-02-28T02:11:16;5.93;;;4.10;;
29500;SDS011;16450;50.288;10.966;2023-02-28T02:14:41;7.17;;;4.33;;
29500;SDS011;16450;50.288;10.966;2023-02-28T02:17:51;6.67;;;3.83;;
29500;SDS011;16450;50.288;10.966;2023-02-28T02:27:48;8.83;;;4.33;;
29500;SDS011;16450;50.288;10.966;2023-02-28T02:41:34;5.60;;;3.53;;
29500;SDS011;16450;50.288;10.966;2023-02-28T02:45:25;5.00;;;3.70;;
29500;SDS011;16450;50.288;10.966;2023-02-28T02:48:29;7.60;;;4.10;;
29500;SDS011;16450;50.288;10.966;2023-02-28T02:51:35;6.67;;;4.17;;
29500;SDS011;16450;50.288;10.966;2023-02-28T02:54:43;6.43;;;3.57;;
29500;SDS011;16450;50.288;10.966;2023-02-28T02:57:49;6.17;;;4.30;;
29500;SDS011;16450;50.288;10.966;2023-02-28T03:00:58;6.93;;;3.90;;
29500;SDS011;16450;50.288;10.966;2023-02-28T03:04:07;5.27;;;3.77;;
29500;SDS011;16450;50.288;10.966;2023-02-28T03:07:18;6.97;;;3.77;;
29500;SDS011;16450;50.288;10.966;2023-02-28T03:10:31;5.93;;;4.13;;
29500;SDS011;16450;50.288;10.966;2023-02-28T03:26:18;6.10;;;4.20;;
29500;SDS011;16450;50.288;10.966;2023-02-28T03:29:28;6.50;;;3.50;;
29500;SDS011;16450;50.288;10.966;2023-02-28T03:36:11;6.40;;;3.60;;
29500;SDS011;16450;50.288;10.966;2023-02-28T03:39:18;6.73;;;3.93;;
29500;SDS011;16450;50.288;10.966;2023-02-28T03:42:28;6.97;;;3.87;;
29500;SDS011;16450;50.288;10.966;2023-02-28T03:45:33;6.23;;;3.80;;
29500;SDS011;16450;50.288;10.966;2023-02-28T03:48:40;6.17;;;4.03;;
29500;SDS011;16450;50.288;10.966;2023-02-28T03:51:50;5.07;;;3.70;;
29500;SDS011;16450;50.288;10.966;2023-02-28T03:54:56;5.90;;;3.60;;
29500;SDS011;16450;50.288;10.966;2023-02-28T04:01:28;7.00;;;3.60;;
29500;SDS011;16450;50.288;10.966;2023-02-28T04:04:34;7.63;;;3.87;;
29500;SDS011;16450;50.288;10.966;2023-02-28T04:07:37;5.40;;;3.43;;
29500;SDS011;16450;50.288;10.966;2023-02-28T04:10:39;4.93;;;3.57;;
29500;SDS011;16450;50.288;10.966;2023-02-28T04:13:41;8.17;;;3.83;;
29500;SDS011;16450;50.288;10.966;2023-02-28T04:16:43;5.47;;;3.63;;
29500;SDS011;16450;50.288;10.966;2023-02-28T04:19:46;6.13;;;4.00;;
29500;SDS011;16450;50.288;10.966;2023-02-28T04:22:48;5.90;;;3.53;;
29500;SDS011;16450;50.288;10.966;2023-02-28T04:25:50;6.50;;;3.93;;
29500;SDS011;16450;50.288;10.966;2023-02-28T04:28:52;8.97;;;4.00;;
29500;SDS011;16450;50.288;10.966;2023-02-28T04:31:57;8.27;;;4.27;;
29500;SDS011;16450;50.288;10.966;2023-02-28T04:35:00;8.60;;;4.53;;
29500;SDS011;16450;50.288;10.966;2023-02-28T04:38:02;5.57;;;4.27;;
29500;SDS011;16450;50.288;10.966;2023-02-28T04:41:04;7.93;;;4.57;;
29500;SDS011;16450;50.288;10.966;2023-02-28T04:44:06;8.97;;;4.50;;
29500;SDS011;16450;50.288;10.966;2023-02-28T04:47:08;7.00;;;4.00;;
29500;SDS011;16450;50.288;10.966;2023-02-28T04:50:10;7.97;;;4.47;;
29500;SDS011;16450;50.288;10.966;2023-02-28T04:53:12;8.17;;;5.13;;
29500;SDS011;16450;50.288;10.966;2023-02-28T04:56:14;7.03;;;4.63;;
29500;SDS011;16450;50.288;10.966;2023-02-28T04:59:18;9.27;;;5.10;;
29500;SDS011;16450;50.288;10.966;2023-02-28T05:02:20;8.33;;;4.87;;
29500;SDS011;16450;50.288;10.966;2023-02-28T05:05:22;8.67;;;4.90;;
29500;SDS011;16450;50.288;10.966;2023-02-28T05:08:24;10.17;;;5.87;;
29500;SDS011;16450;50.288;10.966;2023-02-28T05:11:27;10.37;;;5.37;;
29500;SDS011;16450;50.288;10.966;2023-02-28T05:14:34;10.83;;;5.90;;
29500;SDS011;16450;50.288;10.966;2023-02-28T05:17:37;8.23;;;5.50;;
29500;SDS011;16450;50.288;10.966;2023-02-28T05:20:39;10.40;;;5.93;;
29500;SDS011;16450;50.288;10.966;2023-02-28T05:23:41;9.47;;;5.60;;
29500;SDS011;16450;50.288;10.966;2023-02-28T05:26:44;12.37;;;5.80;;
29500;SDS011;16450;50.288;10.966;2023-02-28T05:29:45;9.03;;;5.73;;
29500;SDS011;16450;50.288;10.966;2023-02-28T05:32:49;10.73;;;5.87;;
29500;SDS011;16450;50.288;10.966;2023-02-28T05:35:52;11.03;;;6.13;;
29500;SDS011;16450;50.288;10.966;2023-02-28T05:38:54;10.50;;;5.97;;
29500;SDS011;16450;50.288;10.966;2023-02-28T05:41:56;9.73;;;6.00;;
29500;SDS011;16450;50.288;10.966;2023-02-28T05:44:58;11.27;;;6.60;;
29500;SDS011;16450;50.288;10.966;2023-02-28T05:48:00;11.93;;;6.30;;
29500;SDS011;16450;50.288;10.966;2023-02-28T05:51:02;12.30;;;6.80;;
29500;SDS011;16450;50.288;10.966;2023-02-28T05:54:05;12.13;;;6.80;;
29500;SDS011;16450;50.288;10.966;2023-02-28T05:57:07;11.60;;;6.67;;
29500;SDS011;16450;50.288;10.966;2023-02-28T06:00:24;12.33;;;6.97;;
29500;SDS011;16450;50.288;10.966;2023-02-28T06:03:26;11.57;;;6.80;;
29500;SDS011;16450;50.288;10.966;2023-02-28T06:06:28;12.23;;;6.90;;
29500;SDS011;16450;50.288;10.966;2023-02-28T06:09:31;12.57;;;7.27;;
29500;SDS011;16450;50.288;10.966;2023-02-28T06:12:33;12.53;;;7.40;;
29500;SDS011;16450;50.288;10.966;2023-02-28T06:15:34;14.53;;;7.23;;
29500;SDS011;16450;50.288;10.966;2023-02-28T06:18:36;14.93;;;7.50;;
29500;SDS011;16450;50.288;10.966;2023-02-28T06:21:38;13.70;;;7.50;;
29500;SDS011;16450;50.288;10.966;2023-02-28T06:24:40;13.57;;;8.10;;
29500;SDS011;16450;50.288;10.966;2023-02-28T06:27:42;14.67;;;8.13;;
29500;SDS011;16450;50.288;10.966;2023-02-28T06:30:44;13.07;;;7.80;;
29500;SDS011;16450;50.288;10.966;2023-02-28T06:33:46;15.27;;;8.07;;
29500;SDS011;16450;50.288;10.966;2023-02-28T06:36:50;15.60;;;8.50;;
29500;SDS011;16450;50.288;10.966;2023-02-28T06:39:53;14.47;;;8.27;;
29500;SDS011;16450;50.288;10.966;2023-02-28T06:42:57;15.33;;;9.23;;
29500;SDS011;16450;50.288;10.966;2023-02-28T06:45:59;15.10;;;8.83;;
29500;SDS011;16450;50.288;10.966;2023-02-28T06:49:02;16.20;;;8.83;;
29500;SDS011;16450;50.288;10.966;2023-02-28T06:52:04;17.63;;;9.93;;
29500;SDS011;16450;50.288;10.966;2023-02-28T06:55:06;18.03;;;9.53;;
29500;SDS011;16450;50.288;10.966;2023-02-28T06:58:09;18.17;;;10.33;;
29500;SDS011;16450;50.288;10.966;2023-02-28T07:01:17;15.60;;;9.27;;
29500;SDS011;16450;50.288;10.966;2023-02-28T07:04:20;16.10;;;9.67;;
29500;SDS011;16450;50.288;10.966;2023-02-28T07:07:22;16.00;;;9.63;;
29500;SDS011;16450;50.288;10.966;2023-02-28T07:10:25;18.07;;;9.57;;
29500;SDS011;16450;50.288;10.966;2023-02-28T07:13:27;17.37;;;9.30;;
29500;SDS011;16450;50.288;10.966;2023-02-28T07:16:29;19.60;;;9.40;;
29500;SDS011;16450;50.288;10.966;2023-02-28T07:19:31;17.80;;;9.47;;
29500;SDS011;16450;50.288;10.966;2023-02-28T07:22:32;15.13;;;8.90;;
29500;SDS011;16450;50.288;10.966;2023-02-28T07:25:34;15.90;;;9.00;;
29500;SDS011;16450;50.288;10.966;2023-02-28T07:28:37;16.83;;;9.23;;
29500;SDS011;16450;50.288;10.966;2023-02-28T07:31:39;19.83;;;9.73;;
29500;SDS011;16450;50.288;10.966;2023-02-28T07:34:41;18.57;;;9.33;;
29500;SDS011;16450;50.288;10.966;2023-02-28T07:37:43;17.87;;;9.37;;
29500;SDS011;16450;50.288;10.966;2023-02-28T07:40:45;15.87;;;9.50;;
29500;SDS011;16450;50.288;10.966;2023-02-28T07:43:47;19.53;;;9.10;;
29500;SDS011;16450;50.288;10.966;2023-02-28T07:46:49;16.17;;;9.00;;
29500;SDS011;16450;50.288;10.966;2023-02-28T07:49:51;20.27;;;9.73;;
29500;SDS011;16450;50.288;10.966;2023-02-28T07:52:53;16.00;;;9.47;;
29500;SDS011;16450;50.288;10.966;2023-02-28T07:55:55;22.07;;;9.47;;
29500;SDS011;16450;50.288;10.966;2023-02-28T07:58:58;21.13;;;10.00;;
29500;SDS011;16450;50.288;10.966;2023-02-28T08:02:00;17.63;;;10.00;;
29500;SDS011;16450;50.288;10.966;2023-02-28T08:05:02;19.63;;;10.27;;
29500;SDS011;16450;50.288;10.966;2023-02-28T08:08:04;18.83;;;9.70;;
29500;SDS011;16450;50.288;10.966;2023-02-28T08:11:06;16.77;;;9.57;;
29500;SDS011;16450;50.288;10.966;2023-02-28T08:14:08;16.50;;;9.23;;
29500;SDS011;16450;50.288;10.966;2023-02-28T08:17:10;17.77;;;10.13;;
29500;SDS011;16450;50.288;10.966;2023-02-28T08:20:12;22.83;;;10.17;;
29500;SDS011;16450;50.288;10.966;2023-02-28T08:23:14;19.37;;;9.27;;
29500;SDS011;16450;50.288;10.966;2023-02-28T08:26:17;15.67;;;8.83;;
29500;SDS011;16450;50.288;10.966;2023-02-28T08:29:19;19.73;;;9.50;;
29500;SDS011;16450;50.288;10.966;2023-02-28T08:32:21;19.30;;;10.20;;
29500;SDS011;16450;50.288;10.966;2023-02-28T08:35:30;15.20;;;7.83;;
29500;SDS011;16450;50.288;10.966;2023-02-28T08:38:32;16.20;;;7.90;;
29500;SDS011;16450;50.288;10.966;2023-02-28T08:41:34;14.33;;;8.10;;
29500;SDS011;16450;50.288;10.966;2023-02-28T08:44:36;13.00;;;7.60;;
29500;SDS011;16450;50.288;10.966;2023-02-28T08:47:38;15.50;;;7.37;;
29500;SDS011;16450;50.288;10.966;2023-02-28T08:50:40;11.93;;;6.80;;
29500;SDS011;16450;50.288;10.966;2023-02-28T08:53:42;9.73;;;6.50;;
29500;SDS011;16450;50.288;10.966;2023-02-28T08:56:44;12.20;;;6.67;;
29500;SDS011;16450;50.288;10.966;2023-02-28T08:59:46;12.90;;;6.37;;
29500;SDS011;16450;50.288;10.966;2023-02-28T09:02:48;9.73;;;6.43;;
29500;SDS011;16450;50.288;10.966;2023-02-28T09:05:57;9.83;;;6.23;;
29500;SDS011;16450;50.288;10.966;2023-02-28T09:09:00;12.43;;;6.07;;
29500;SDS011;16450;50.288;10.966;2023-02-28T09:12:02;11.03;;;6.30;;
29500;SDS011;16450;50.288;10.966;2023-02-28T09:15:04;10.93;;;6.20;;
29500;SDS011;16450;50.288;10.966;2023-02-28T09:18:07;10.67;;;6.27;;
29500;SDS011;16450;50.288;10.966;2023-02-28T09:21:10;9.73;;;6.20;;
29500;SDS011;16450;50.288;10.966;2023-02-28T09:24:15;13.03;;;6.47;;
29500;SDS011;16450;50.288;10.966;2023-02-28T09:27:17;9.70;;;6.07;;
29500;SDS011;16450;50.288;10.966;2023-02-28T09:30:19;11.50;;;6.27;;
29500;SDS011;16450;50.288;10.966;2023-02-28T09:33:21;14.87;;;6.67;;
29500;SDS011;16450;50.288;10.966;2023-02-28T09:36:23;12.27;;;6.43;;
29500;SDS011;16450;50.288;10.966;2023-02-28T09:39:43;11.37;;;6.50;;
29500;SDS011;16450;50.288;10.966;2023-02-28T09:42:46;12.27;;;6.50;;
29500;SDS011;16450;50.288;10.966;2023-02-28T09:45:52;10.00;;;6.20;;
29500;SDS011;16450;50.288;10.966;2023-02-28T09:49:05;8.60;;;5.90;;
29500;SDS011;16450;50.288;10.966;2023-02-28T09:52:20;9.27;;;5.50;;
29500;SDS011;16450;50.288;10.966;2023-02-28T09:58:48;9.43;;;5.50;;
29500;SDS011;16450;50.288;10.966;2023-02-28T10:05:18;10.40;;;5.70;;
29500;SDS011;16450;50.288;10.966;2023-02-28T10:08:28;8.63;;;5.20;;
29500;SDS011;16450;50.288;10.966;2023-02-28T10:11:35;8.27;;;5.33;;
29500;SDS011;16450;50.288;10.966;2023-02-28T10:14:38;10.33;;;5.43;;
29500;SDS011;16450;50.288;10.966;2023-02-28T10:17:47;8.83;;;5.00;;
29500;SDS011;16450;50.288;10.966;2023-02-28T10:21:08;10.00;;;5.83;;
29500;SDS011;16450;50.288;10.966;2023-02-28T10:24:32;10.07;;;5.43;;
29500;SDS011;16450;50.288;10.966;2023-02-28T10:27:46;9.20;;;5.40;;
29500;SDS011;16450;50.288;10.966;2023-02-28T10:30:48;9.03;;;6.23;;
29500;SDS011;16450;50.288;10.966;2023-02-28T10:33:52;10.90;;;5.90;;
29500;SDS011;16450;50.288;10.966;2023-02-28T10:36:53;8.50;;;5.57;;
29500;SDS011;16450;50.288;10.966;2023-02-28T10:39:57;8.87;;;5.67;;
29500;SDS011;16450;50.288;10.966;2023-02-28T10:43:00;7.23;;;5.00;;
29500;SDS011;16450;50.288;10.966;2023-02-28T10:46:20;8.87;;;5.80;;
29500;SDS011;16450;50.288;10.966;2023-02-28T10:49:29;11.60;;;5.77;;
29500;SDS011;16450;50.288;10.966;2023-02-28T10:52:33;11.90;;;5.63;;
29500;SDS011;16450;50.288;10.966;2023-02-28T10:55:40;9.70;;;5.83;;
29500;SDS011;16450;50.288;10.966;2023-02-28T11:02:01;8.37;;;5.80;;
29500;SDS011;16450;50.288;10.966;2023-02-28T11:08:25;10.27;;;5.70;;
29500;SDS011;16450;50.288;10.966;2023-02-28T11:11:28;9.57;;;5.70;;
29500;SDS011;16450;50.288;10.966;2023-02-28T11:14:35;8.83;;;5.43;;
29500;SDS011;16450;50.288;10.966;2023-02-28T11:21:09;8.97;;;5.90;;
29500;SDS011;16450;50.288;10.966;2023-02-28T11:24:23;9.40;;;5.93;;
29500;SDS011;16450;50.288;10.966;2023-02-28T11:30:40;11.47;;;6.17;;
29500;SDS011;16450;50.288;10.966;2023-02-28T11:36:52;11.97;;;6.87;;
29500;SDS011;16450;50.288;10.966;2023-02-28T11:39:57;12.33;;;6.90;;
29500;SDS011;16450;50.288;10.966;2023-02-28T11:43:01;10.97;;;6.70;;
29500;SDS011;16450;50.288;10.966;2023-02-28T11:53:10;12.03;;;7.07;;
29500;SDS011;16450;50.288;10.966;2023-02-28T11:56:44;13.33;;;7.37;;
29500;SDS011;16450;50.288;10.966;2023-02-28T12:00:52;11.80;;;6.83;;
29500;SDS011;16450;50.288;10.966;2023-02-28T12:07:04;12.53;;;6.87;;
29500;SDS011;16450;50.288;10.966;2023-02-28T12:13:37;11.73;;;7.13;;
29500;SDS011;16450;50.288;10.966;2023-02-28T12:20:14;13.03;;;7.33;;
29500;SDS011;16450;50.288;10.966;2023-02-28T12:26:53;12.40;;;7.10;;
29500;SDS011;16450;50.288;10.966;2023-02-28T12:30:02;10.43;;;6.80;;
29500;SDS011;16450;50.288;10.966;2023-02-28T12:33:15;11.93;;;7.27;;
29500;SDS011;16450;50.288;10.966;2023-02-28T12:36:21;11.07;;;6.97;;
29500;SDS011;16450;50.288;10.966;2023-02-28T12:39:29;10.70;;;7.70;;
29500;SDS011;16450;50.288;10.966;2023-02-28T12:42:57;11.50;;;7.10;;
29500;SDS011;16450;50.288;10.966;2023-02-28T12:46:10;11.10;;;7.10;;
29500;SDS011;16450;50.288;10.966;2023-02-28T12:49:27;11.10;;;7.23;;
29500;SDS011;16450;50.288;10.966;2023-02-28T12:52:53;11.87;;;7.00;;
29500;SDS011;16450;50.288;10.966;2023-02-28T12:56:24;10.60;;;6.97;;
29500;SDS011;16450;50.288;10.966;2023-02-28T12:59:37;9.10;;;6.43;;
29500;SDS011;16450;50.288;10.966;2023-02-28T13:02:59;11.40;;;7.00;;
29500;SDS011;16450;50.288;10.966;2023-02-28T13:06:20;10.37;;;6.90;;
29500;SDS011;16450;50.288;10.966;2023-02-28T13:09:30;10.77;;;6.80;;
29500;SDS011;16450;50.288;10.966;2023-02-28T13:12:32;9.83;;;7.00;;
29500;SDS011;16450;50.288;10.966;2023-02-28T13:15:34;13.47;;;7.30;;
29500;SDS011;16450;50.288;10.966;2023-02-28T13:18:45;10.70;;;6.43;;
29500;SDS011;16450;50.288;10.966;2023-02-28T13:21:48;11.17;;;6.97;;
29500;SDS011;16450;50.288;10.966;2023-02-28T13:24:55;12.17;;;7.27;;
29500;SDS011;16450;50.288;10.966;2023-02-28T13:27:57;11.90;;;7.53;;
29500;SDS011;16450;50.288;10.966;2023-02-28T13:31:05;11.37;;;7.33;;
29500;SDS011;16450;50.288;10.966;2023-02-28T13:34:12;13.00;;;7.07;;
29500;SDS011;16450;50.288;10.966;2023-02-28T13:40:30;11.23;;;6.93;;
29500;SDS011;16450;50.288;10.966;2023-02-28T13:50:30;12.23;;;7.30;;
29500;SDS011;16450;50.288;10.966;2023-02-28T13:53:56;11.57;;;7.30;;
29500;SDS011;16450;50.288;10.966;2023-02-28T14:07:48;14.23;;;7.27;;
29500;SDS011;16450;50.288;10.966;2023-02-28T14:11:03;10.73;;;6.80;;
29500;SDS011;16450;50.288;10.966;2023-02-28T14:14:08;14.00;;;7.37;;
29500;SDS011;16450;50.288;10.966;2023-02-28T14:17:14;11.77;;;7.00;;
29500;SDS011;16450;50.288;10.966;2023-02-28T14:20:18;12.53;;;7.83;;
29500;SDS011;16450;50.288;10.966;2023-02-28T14:23:26;13.83;;;8.00;;
29500;SDS011;16450;50.288;10.966;2023-02-28T14:26:41;11.20;;;7.37;;
29500;SDS011;16450;50.288;10.966;2023-02-28T14:36:26;12.67;;;7.20;;
29500;SDS011;16450;50.288;10.966;2023-02-28T14:39:33;12.07;;;7.43;;
29500;SDS011;16450;50.288;10.966;2023-02-28T14:42:36;12.10;;;7.27;;
29500;SDS011;16450;50.288;10.966;2023-02-28T14:45:39;10.93;;;7.03;;
29500;SDS011;16450;50.288;10.966;2023-02-28T14:48:41;13.70;;;7.43;;
29500;SDS011;16450;50.288;10.966;2023-02-28T14:51:48;15.07;;;7.90;;
29500;SDS011;16450;50.288;10.966;2023-02-28T14:54:52;15.37;;;7.27;;
29500;SDS011;16450;50.288;10.966;2023-02-28T15:01:27;11.20;;;7.67;;
29500;SDS011;16450;50.288;10.966;2023-02-28T15:04:29;11.97;;;8.03;;
29500;SDS011;16450;50.288;10.966;2023-02-28T15:07:34;14.07;;;8.17;;
29500;SDS011;16450;50.288;10.966;2023-02-28T15:10:36;17.37;;;7.90;;
29500;SDS011;16450;50.288;10.966;2023-02-28T15:16:53;12.30;;;8.30;;
29500;SDS011;16450;50.288;10.966;2023-02-28T15:19:59;14.13;;;7.83;;
29500;SDS011;16450;50.288;10.966;2023-02-28T15:23:01;11.20;;;7.40;;
29500;SDS011;16450;50.288;10.966;2023-02-28T15:26:04;11.90;;;7.50;;
29500;SDS011;16450;50.288;10.966;2023-02-28T15:29:07;15.80;;;8.50;;
29500;SDS011;16450;50.288;10.966;2023-02-28T15:35:41;14.47;;;8.10;;
29500;SDS011;16450;50.288;10.966;2023-02-28T15:38:43;13.67;;;8.27;;
29500;SDS011;16450;50.288;10.966;2023-02-28T15:41:45;13.87;;;8.80;;
29500;SDS011;16450;50.288;10.966;2023-02-28T15:44:47;13.40;;;7.97;;
29500;SDS011;16450;50.288;10.966;2023-02-28T15:47:49;12.57;;;8.17;;
29500;SDS011;16450;50.288;10.966;2023-02-28T15:50:54;13.33;;;8.07;;
29500;SDS011;16450;50.288;10.966;2023-02-28T15:54:02;13.40;;;8.87;;
29500;SDS011;16450;50.288;10.966;2023-02-28T15:57:07;12.37;;;8.20;;
29500;SDS011;16450;50.288;10.966;2023-02-28T16:00:18;13.37;;;8.53;;
29500;SDS011;16450;50.288;10.966;2023-02-28T16:03:22;14.23;;;9.30;;
29500;SDS011;16450;50.288;10.966;2023-02-28T16:09:43;14.70;;;8.53;;
29500;SDS011;16450;50.288;10.966;2023-02-28T16:12:45;12.87;;;8.50;;
29500;SDS011;16450;50.288;10.966;2023-02-28T16:15:46;14.03;;;8.83;;
29500;SDS011;16450;50.288;10.966;2023-02-28T16:18:50;14.23;;;8.27;;
29500;SDS011;16450;50.288;10.966;2023-02-28T16:21:53;15.30;;;8.90;;
29500;SDS011;16450;50.288;10.966;2023-02-28T16:24:55;15.27;;;9.57;;
29500;SDS011;16450;50.288;10.966;2023-02-28T16:27:56;15.73;;;10.10;;
29500;SDS011;16450;50.288;10.966;2023-02-28T16:31:01;15.33;;;9.90;;
29500;SDS011;16450;50.288;10.966;2023-02-28T16:34:05;22.00;;;12.70;;
29500;SDS011;16450;50.288;10.966;2023-02-28T16:37:09;18.73;;;10.90;;
29500;SDS011;16450;50.288;10.966;2023-02-28T16:40:15;18.03;;;10.40;;
29500;SDS011;16450;50.288;10.966;2023-02-28T16:43:19;19.17;;;9.90;;
29500;SDS011;16450;50.288;10.966;2023-02-28T16:46:34;19.03;;;10.83;;
29500;SDS011;16450;50.288;10.966;2023-02-28T16:49:36;16.23;;;10.53;;
29500;SDS011;16450;50.288;10.966;2023-02-28T16:52:38;18.80;;;11.20;;
29500;SDS011;16450;50.288;10.966;2023-02-28T16:55:40;21.87;;;12.37;;
29500;SDS011;16450;50.288;10.966;2023-02-28T16:58:43;19.47;;;11.53;;
29500;SDS011;16450;50.288;10.966;2023-02-28T17:01:45;46.27;;;28.43;;
29500;SDS011;16450;50.288;10.966;2023-02-28T17:04:47;28.03;;;15.33;;
29500;SDS011;16450;50.288;10.966;2023-02-28T17:07:49;27.37;;;16.80;;
29500;SDS011;16450;50.288;10.966;2023-02-28T17:10:51;21.27;;;12.77;;
29500;SDS011;16450;50.288;10.966;2023-02-28T17:13:53;27.47;;;17.80;;
29500;SDS011;16450;50.288;10.966;2023-02-28T17:16:55;26.60;;;16.87;;
29500;SDS011;16450;50.288;10.966;2023-02-28T17:19:57;24.07;;;13.47;;
29500;SDS011;16450;50.288;10.966;2023-02-28T17:22:59;25.77;;;13.80;;
29500;SDS011;16450;50.288;10.966;2023-02-28T17:26:02;22.47;;;12.50;;
29500;SDS011;16450;50.288;10.966;2023-02-28T17:29:13;25.03;;;13.60;;
29500;SDS011;16450;50.288;10.966;2023-02-28T17:32:17;20.50;;;12.23;;
29500;SDS011;16450;50.288;10.966;2023-02-28T17:35:19;19.93;;;12.10;;
29500;SDS011;16450;50.288;10.966;2023-02-28T17:38:21;23.10;;;13.07;;
29500;SDS011;16450;50.288;10.966;2023-02-28T17:41:24;25.17;;;13.23;;
29500;SDS011;16450;50.288;10.966;2023-02-28T17:44:27;24.10;;;13.47;;
29500;SDS011;16450;50.288;10.966;2023-02-28T17:47:29;22.23;;;13.73;;
29500;SDS011;16450;50.288;10.966;2023-02-28T17:50:31;22.77;;;12.33;;
29500;SDS011;16450;50.288;10.966;2023-02-28T17:53:34;21.40;;;12.70;;
29500;SDS011;16450;50.288;10.966;2023-02-28T17:56:36;23.63;;;13.33;;
29500;SDS011;16450;50.288;10.966;2023-02-28T17:59:37;22.80;;;12.73;;
29500;SDS011;16450;50.288;10.966;2023-02-28T18:02:39;21.07;;;13.00;;
29500;SDS011;16450;50.288;10.966;2023-02-28T18:05:41;23.70;;;12.90;;
29500;SDS011;16450;50.288;10.966;2023-02-28T18:08:43;20.23;;;13.07;;
29500;SDS011;16450;50.288;10.966;2023-02-28T18:11:45;20.43;;;12.07;;
29500;SDS011;16450;50.288;10.966;2023-02-28T18:14:49;24.83;;;12.93;;
29500;SDS011;16450;50.288;10.966;2023-02-28T18:17:51;21.07;;;12.77;;
29500;SDS011;16450;50.288;10.966;2023-02-28T18:20:52;21.27;;;12.40;;
29500;SDS011;16450;50.288;10.966;2023-02-28T18:23:54;22.83;;;12.77;;
29500;SDS011;16450;50.288;10.966;2023-02-28T18:26:58;22.43;;;12.40;;
29500;SDS011;16450;50.288;10.966;2023-02-28T18:30:00;21.23;;;12.37;;
29500;SDS011;16450;50.288;10.966;2023-02-28T18:33:03;23.07;;;13.40;;
29500;SDS011;16450;50.288;10.966;2023-02-28T18:36:05;23.17;;;13.73;;
29500;SDS011;16450;50.288;10.966;2023-02-28T18:39:08;24.93;;;14.07;;
29500;SDS011;16450;50.288;10.966;2023-02-28T18:42:12;23.50;;;13.60;;
29500;SDS011;16450;50.288;10.966;2023-02-28T18:45:14;26.77;;;17.77;;
29500;SDS011;16450;50.288;10.966;2023-02-28T18:48:16;28.73;;;17.23;;
29500;SDS011;16450;50.288;10.966;2023-02-28T18:51:20;23.30;;;14.03;;
29500;SDS011;16450;50.288;10.966;2023-02-28T18:54:24;22.37;;;13.50;;
29500;SDS011;16450;50.288;10.966;2023-02-28T18:57:27;24.23;;;13.67;;
29500;SDS011;16450;50.288;10.966;2023-02-28T19:00:29;24.07;;;13.07;;
29500;SDS011;16450;50.288;10.966;2023-02-28T19:03:34;24.63;;;13.50;;
29500;SDS011;16450;50.288;10.966;2023-02-28T19:06:36;24.67;;;13.27;;
29500;SDS011;16450;50.288;10.966;2023-02-28T19:09:39;21.37;;;13.13;;
29500;SDS011;16450;50.288;10.966;2023-02-28T19:12:41;24.60;;;13.50;;
29500;SDS011;16450;50.288;10.966;2023-02-28T19:15:43;26.27;;;13.70;;
29500;SDS011;16450;50.288;10.966;2023-02-28T19:18:45;22.43;;;12.83;;
29500;SDS011;16450;50.288;10.966;2023-02-28T19:21:48;24.03;;;13.47;;
29500;SDS011;16450;50.288;10.966;2023-02-28T19:24:50;21.43;;;13.03;;
29500;SDS011;16450;50.288;10.966;2023-02-28T19:27:53;25.80;;;13.50;;
29500;SDS011;16450;50.288;10.966;2023-02-28T19:30:56;21.00;;;12.50;;
29500;SDS011;16450;50.288;10.966;2023-02-28T19:33:59;22.67;;;13.23;;
29500;SDS011;16450;50.288;10.966;2023-02-28T19:37:01;24.03;;;13.17;;
29500;SDS011;16450;50.288;10.966;2023-02-28T19:40:03;22.13;;;13.10;;
29500;SDS011;16450;50.288;10.966;2023-02-28T19:43:05;23.40;;;13.40;;
29500;SDS011;16450;50.288;10.966;2023-02-28T19:46:08;23.90;;;13.73;;
29500;SDS011;16450;50.288;10.966;2023-02-28T19:49:12;23.20;;;13.40;;
29500;SDS011;16450;50.288;10.966;2023-02-28T19:52:14;24.43;;;13.80;;
29500;SDS011;16450;50.288;10.966;2023-02-28T19:55:16;23.03;;;13.00;;
29500;SDS011;16450;50.288;10.966;2023-02-28T19:58:18;23.77;;;13.87;;
29500;SDS011;16450;50.288;10.966;2023-02-28T20:01:23;23.67;;;13.80;;
29500;SDS011;16450;50.288;10.966;2023-02-28T20:04:26;23.20;;;13.57;;
29500;SDS011;16450;50.288;10.966;2023-02-28T20:07:28;24.70;;;13.87;;